createdAt,value
2018-04-08T00:01:28.898Z,10.60
2018-04-08T00:03:56.516Z,12.47
2018-04-08T00:06:25.342Z,13.97
2018-04-08T00:08:52.994Z,14.23
2018-04-08T00:11:21.370Z,13.97
2018-04-08T00:13:49.378Z,16.17
2018-04-08T00:16:18.559Z,17.50
2018-04-08T00:18:47.721Z,14.40
2018-04-08T00:21:15.756Z,13.40
2018-04-08T00:23:44.232Z,13.67
2018-04-08T00:26:12.604Z,15.50
2018-04-08T00:28:41.053Z,12.97
2018-04-08T00:31:08.669Z,12.70
2018-04-08T00:33:37.113Z,14.60
2018-04-08T00:36:05.523Z,15.40
2018-04-08T00:38:33.162Z,11.13
2018-04-08T00:41:01.553Z,17.17
2018-04-08T00:43:29.640Z,15.53
2018-04-08T00:45:57.278Z,15.17
2018-04-08T00:48:26.258Z,15.20
2018-04-08T00:50:55.111Z,13.93
2018-04-08T00:53:22.773Z,14.60
2018-04-08T00:55:50.399Z,13.27
2018-04-08T00:58:18.847Z,13.17
2018-04-08T01:00:46.491Z,11.97
2018-04-08T01:03:15.489Z,13.07
2018-04-08T01:05:43.186Z,16.27
2018-04-08T01:08:10.811Z,14.73
2018-04-08T01:10:38.902Z,12.43
2018-04-08T01:13:07.302Z,13.27
2018-04-08T01:15:35.366Z,14.97
2018-04-08T01:18:03.820Z,11.93
2018-04-08T01:20:31.847Z,11.83
2018-04-08T01:22:59.501Z,10.97
2018-04-08T01:25:27.522Z,12.10
2018-04-08T01:27:55.549Z,12.07
2018-04-08T01:30:23.259Z,15.67
2018-04-08T01:32:52.274Z,12.27
2018-04-08T01:35:20.712Z,13.20
2018-04-08T01:37:49.152Z,14.07
2018-04-08T01:40:17.953Z,13.60
2018-04-08T01:42:46.745Z,13.70
2018-04-08T01:45:15.497Z,15.63
2018-04-08T01:47:43.921Z,13.80
2018-04-08T01:50:13.031Z,11.57
2018-04-08T01:52:41.138Z,14.73
2018-04-08T01:55:09.190Z,13.67
2018-04-08T01:57:36.839Z,13.53
2018-04-08T02:00:05.328Z,13.00
2018-04-08T02:02:33.777Z,10.23
2018-04-08T02:05:01.379Z,10.97
2018-04-08T02:07:29.789Z,12.17
2018-04-08T02:09:57.833Z,11.63
2018-04-08T02:12:26.782Z,11.43
2018-04-08T02:14:54.445Z,14.63
2018-04-08T02:17:22.120Z,12.63
2018-04-08T02:19:49.779Z,10.83
2018-04-08T02:22:18.171Z,10.67
2018-04-08T02:24:45.836Z,11.03
2018-04-08T02:27:14.252Z,14.33
2018-04-08T02:29:42.287Z,11.70
2018-04-08T02:32:09.911Z,14.03
2018-04-08T02:34:37.954Z,13.07
2018-04-08T02:37:06.446Z,9.13
2018-04-08T02:39:34.847Z,11.70
2018-04-08T02:42:03.277Z,14.13
2018-04-08T02:44:31.383Z,13.70
2018-04-08T02:46:59.396Z,13.23
2018-04-08T02:49:27.051Z,12.83
2018-04-08T02:51:55.419Z,12.53
2018-04-08T02:54:23.488Z,13.20
2018-04-08T02:56:51.928Z,12.77
2018-04-08T02:59:20.671Z,13.60
2018-04-08T03:01:48.789Z,11.87
2018-04-08T03:04:17.195Z,14.43
2018-04-08T03:06:44.859Z,13.57
2018-04-08T03:09:12.542Z,13.03
2018-04-08T03:11:41.331Z,13.97
2018-04-08T03:14:09.805Z,12.00
2018-04-08T03:16:37.485Z,15.07
2018-04-08T03:19:05.880Z,14.03
2018-04-08T03:21:33.572Z,11.67
2018-04-08T03:24:01.992Z,13.40
2018-04-08T03:26:30.068Z,13.13
2018-04-08T03:28:57.705Z,11.50
2018-04-08T03:31:26.088Z,13.87
2018-04-08T03:33:54.538Z,10.93
2018-04-08T03:36:23.336Z,12.77
2018-04-08T03:38:52.135Z,12.70
2018-04-08T03:41:20.192Z,12.03
2018-04-08T03:43:49.074Z,14.77
2018-04-08T03:46:17.125Z,13.53
2018-04-08T03:48:44.783Z,13.77
2018-04-08T03:51:12.471Z,13.90
2018-04-08T03:53:40.535Z,13.00
2018-04-08T03:56:09.778Z,13.20
2018-04-08T03:58:37.789Z,20.37
2018-04-08T04:01:06.623Z,14.60
2018-04-08T04:03:35.134Z,14.40
2018-04-08T04:06:02.794Z,15.63
2018-04-08T04:08:31.955Z,15.07
2018-04-08T04:10:59.601Z,13.60
2018-04-08T04:13:28.006Z,13.33
2018-04-08T04:15:56.463Z,17.17
2018-04-08T04:18:37.007Z,15.80
2018-04-08T04:21:16.788Z,12.73
2018-04-08T04:23:56.344Z,15.43
2018-04-08T04:26:30.017Z,13.20
2018-04-08T04:28:58.413Z,14.13
2018-04-08T04:31:26.908Z,13.37
2018-04-08T04:33:54.587Z,12.73
2018-04-08T04:36:39.249Z,13.43
2018-04-08T04:39:06.935Z,12.20
2018-04-08T04:41:34.629Z,15.33
2018-04-08T04:44:03.016Z,13.50
2018-04-08T04:46:30.646Z,13.10
2018-04-08T04:48:58.720Z,13.43
2018-04-08T04:51:27.840Z,12.13
2018-04-08T04:53:56.675Z,11.80
2018-04-08T04:56:25.152Z,13.50
2018-04-08T04:58:53.174Z,15.20
2018-04-08T05:01:21.647Z,14.63
2018-04-08T05:03:50.134Z,12.80
2018-04-08T05:06:18.558Z,16.77
2018-04-08T05:08:47.017Z,16.80
2018-04-08T05:11:15.067Z,14.27
2018-04-08T05:13:43.873Z,13.43
2018-04-08T05:16:11.536Z,13.00
2018-04-08T05:18:39.563Z,12.63
2018-04-08T05:21:07.227Z,11.97
2018-04-08T05:23:35.256Z,12.37
2018-04-08T05:26:02.903Z,14.63
2018-04-08T05:28:31.001Z,10.87
2018-04-08T05:30:59.371Z,11.03
2018-04-08T05:33:27.500Z,14.17
2018-04-08T05:35:56.675Z,13.13
2018-04-08T05:38:25.796Z,12.47
2018-04-08T05:40:54.180Z,10.17
2018-04-08T05:43:22.228Z,10.63
2018-04-08T05:45:49.938Z,10.90
2018-04-08T05:48:17.549Z,12.13
2018-04-08T05:50:45.187Z,9.50
2018-04-08T05:53:13.199Z,9.47
2018-04-08T05:55:41.576Z,11.37
2018-04-08T05:58:09.659Z,12.83
2018-04-08T06:00:37.280Z,13.53
2018-04-08T06:03:05.375Z,9.97
2018-04-08T06:05:32.978Z,11.13
2018-04-08T06:08:00.636Z,12.03
2018-04-08T06:10:28.290Z,12.87
2018-04-08T06:12:55.897Z,17.07
2018-04-08T06:15:23.505Z,11.07
2018-04-08T06:17:51.171Z,13.07
2018-04-08T06:20:18.812Z,10.93
2018-04-08T06:22:46.832Z,9.67
2018-04-08T06:25:14.548Z,11.83
2018-04-08T06:27:43.571Z,8.67
2018-04-08T06:30:11.243Z,8.60
2018-04-08T06:32:38.845Z,13.13
2018-04-08T06:35:06.566Z,11.20
2018-04-08T06:37:34.276Z,9.10
2018-04-08T06:40:02.718Z,10.77
2018-04-08T06:42:30.384Z,11.47
2018-04-08T06:44:58.049Z,11.27
2018-04-08T06:47:25.746Z,10.27
2018-04-08T06:49:53.382Z,13.33
2018-04-08T06:52:21.067Z,10.63
2018-04-08T06:54:48.679Z,13.97
2018-04-08T06:57:16.405Z,10.63
2018-04-08T06:59:44.867Z,13.43
2018-04-08T07:02:12.484Z,15.17
2018-04-08T07:04:40.194Z,12.23
2018-04-08T07:07:07.881Z,11.47
2018-04-08T07:09:35.962Z,11.27
2018-04-08T07:12:04.434Z,12.97
2018-04-08T07:14:32.076Z,12.57
2018-04-08T07:16:59.686Z,10.77
2018-04-08T07:19:28.143Z,10.27
2018-04-08T07:21:56.236Z,11.17
2018-04-08T07:24:23.849Z,11.27
2018-04-08T07:26:51.491Z,11.77
2018-04-08T07:29:19.212Z,12.43
2018-04-08T07:31:46.902Z,9.63
2018-04-08T07:34:14.539Z,11.13
2018-04-08T07:36:42.194Z,9.57
2018-04-08T07:39:09.841Z,9.83
2018-04-08T07:41:38.262Z,13.87
2018-04-08T07:44:06.653Z,10.30
2018-04-08T07:46:34.272Z,11.10
2018-04-08T07:49:02.764Z,15.10
2018-04-08T07:51:30.429Z,14.30
2018-04-08T07:53:58.072Z,9.63
2018-04-08T07:56:25.731Z,9.57
2018-04-08T07:58:53.862Z,11.07
2018-04-08T08:01:21.497Z,9.53
2018-04-08T08:03:49.164Z,10.07
2018-04-08T08:06:16.856Z,10.80
2018-04-08T08:08:44.462Z,12.90
2018-04-08T08:11:12.157Z,10.47
2018-04-08T08:13:40.971Z,10.83
2018-04-08T08:16:08.629Z,10.77
2018-04-08T08:18:36.665Z,9.27
2018-04-08T08:21:07.030Z,9.17
2018-04-08T08:23:35.326Z,8.23
2018-04-08T08:26:03.353Z,11.07
2018-04-08T08:28:31.389Z,7.97
2018-04-08T08:30:58.987Z,10.53
2018-04-08T08:33:26.675Z,9.70
2018-04-08T08:35:55.080Z,9.23
2018-04-08T08:38:23.282Z,8.97
2018-04-08T08:40:51.669Z,12.70
2018-04-08T08:43:19.337Z,11.07
2018-04-08T08:45:47.858Z,8.77
2018-04-08T08:48:15.895Z,9.30
2018-04-08T08:50:43.538Z,9.50
2018-04-08T08:53:11.512Z,7.90
2018-04-08T08:55:39.132Z,10.23
2018-04-08T08:58:07.535Z,17.60
2018-04-08T09:00:35.646Z,9.47
2018-04-08T09:03:03.703Z,7.77
2018-04-08T09:05:31.753Z,14.17
2018-04-08T09:07:59.841Z,9.30
2018-04-08T09:10:27.550Z,9.67
2018-04-08T09:12:55.221Z,10.77
2018-04-08T09:15:23.631Z,10.10
2018-04-08T09:17:51.358Z,13.67
2018-04-08T09:20:25.292Z,18.40
2018-04-08T09:22:59.284Z,11.13
2018-04-08T09:25:27.773Z,11.00
2018-04-08T09:27:56.584Z,16.80
2018-04-08T09:30:24.198Z,17.03
2018-04-08T09:32:51.802Z,10.97
2018-04-08T09:35:19.506Z,7.87
2018-04-08T09:37:47.533Z,10.03
2018-04-08T09:40:15.139Z,12.90
2018-04-08T09:42:43.116Z,8.83
2018-04-08T09:45:10.736Z,7.83
2018-04-08T09:47:38.340Z,11.10
2018-04-08T09:50:07.077Z,18.10
2018-04-08T09:52:34.717Z,12.30
2018-04-08T09:55:03.952Z,12.03
2018-04-08T09:57:34.572Z,12.30
2018-04-08T10:00:02.272Z,84.67
2018-04-08T10:02:37.563Z,15.63
2018-04-08T10:05:05.209Z,13.20
2018-04-08T10:07:33.636Z,19.30
2018-04-08T10:10:01.336Z,14.70
2018-04-08T10:12:29.004Z,12.67
2018-04-08T10:14:57.788Z,9.97
2018-04-08T10:17:26.561Z,9.57
2018-04-08T10:19:54.171Z,11.83
2018-04-08T10:22:21.813Z,8.93
2018-04-08T10:24:50.320Z,14.23
2018-04-08T10:27:18.727Z,13.17
2018-04-08T10:29:46.407Z,10.67
2018-04-08T10:32:14.037Z,8.33
2018-04-08T10:34:41.658Z,12.00
2018-04-08T10:37:10.108Z,22.53
2018-04-08T10:39:37.768Z,82.63
2018-04-08T10:42:05.386Z,16.57
2018-04-08T10:44:33.185Z,9.47
2018-04-08T10:50:01.543Z,13.40
2018-04-08T10:52:29.279Z,45.87
2018-04-08T10:54:57.728Z,13.73
2018-04-08T10:57:25.343Z,19.97
2018-04-08T10:59:52.975Z,26.43
2018-04-08T11:02:20.616Z,44.07
2018-04-08T11:04:48.697Z,13.23
2018-04-08T11:07:16.375Z,10.77
2018-04-08T11:09:44.435Z,10.73
2018-04-08T11:12:12.100Z,11.33
2018-04-08T11:14:39.841Z,12.70
2018-04-08T11:17:08.259Z,12.17
2018-04-08T11:19:36.679Z,10.13
2018-04-08T11:22:05.484Z,8.90
2018-04-08T11:24:33.149Z,8.67
2018-04-08T11:27:00.806Z,12.33
2018-04-08T11:29:29.223Z,12.53
2018-04-08T11:31:57.285Z,10.10
2018-04-08T11:34:26.405Z,9.23
2018-04-08T11:36:54.468Z,14.13
2018-04-08T11:39:22.890Z,12.10
2018-04-08T11:41:50.569Z,11.63
2018-04-08T11:44:18.248Z,10.30
2018-04-08T11:46:45.876Z,13.83
2018-04-08T11:49:13.546Z,11.60
2018-04-08T11:51:41.218Z,12.57
2018-04-08T11:54:08.942Z,9.97
2018-04-08T11:56:36.564Z,11.07
2018-04-08T11:59:04.643Z,13.70
2018-04-08T12:01:32.363Z,13.43
2018-04-08T12:04:00.475Z,17.47
2018-04-08T12:06:28.121Z,12.77
2018-04-08T12:08:55.788Z,15.10
2018-04-08T12:11:23.504Z,11.40
2018-04-08T12:13:51.210Z,12.97
2018-04-08T12:16:18.814Z,9.40
2018-04-08T12:18:46.516Z,14.13
2018-04-08T12:21:14.195Z,11.17
2018-04-08T12:23:42.621Z,14.57
2018-04-08T12:26:10.813Z,13.23
2018-04-08T12:28:39.644Z,15.07
2018-04-08T12:31:07.327Z,13.60
2018-04-08T12:33:35.065Z,14.03
2018-04-08T12:36:02.731Z,11.83
2018-04-08T12:38:31.120Z,14.50
2018-04-08T12:40:58.759Z,14.17
2018-04-08T12:43:26.436Z,14.87
2018-04-08T12:45:54.112Z,13.53
2018-04-08T12:48:21.749Z,12.67
2018-04-08T12:50:49.436Z,12.67
2018-04-08T12:53:17.112Z,13.77
2018-04-08T12:55:44.759Z,13.10
2018-04-08T12:58:12.810Z,17.27
2018-04-08T13:00:40.483Z,12.47
2018-04-08T13:03:08.106Z,15.47
2018-04-08T13:05:35.759Z,16.90
2018-04-08T13:08:03.399Z,16.63
2018-04-08T13:10:32.272Z,14.83
2018-04-08T13:13:00.345Z,14.70
2018-04-08T13:15:28.797Z,11.37
2018-04-08T13:17:56.545Z,14.47
2018-04-08T13:20:24.227Z,17.57
2018-04-08T13:22:51.888Z,13.03
2018-04-08T13:25:19.526Z,12.93
2018-04-08T13:27:47.282Z,14.73
2018-04-08T13:30:15.008Z,10.93
2018-04-08T13:32:43.449Z,16.00
2018-04-08T13:35:11.103Z,14.97
2018-04-08T13:37:40.098Z,12.83
2018-04-08T13:40:07.777Z,14.60
2018-04-08T13:42:35.447Z,15.87
2018-04-08T13:45:03.098Z,12.67
2018-04-08T13:47:30.731Z,18.87
2018-04-08T13:49:58.763Z,16.57
2018-04-08T13:52:26.922Z,16.27
2018-04-08T13:54:54.604Z,15.70
2018-04-08T13:57:23.023Z,13.40
2018-04-08T13:59:51.449Z,13.27
2018-04-08T14:02:20.291Z,14.57
2018-04-08T14:04:47.952Z,17.53
2018-04-08T14:07:15.591Z,18.97
2018-04-08T14:09:43.683Z,18.63
2018-04-08T14:12:12.068Z,14.60
2018-04-08T14:14:39.680Z,17.13
2018-04-08T14:17:08.087Z,16.23
2018-04-08T14:19:35.695Z,18.40
2018-04-08T14:22:03.365Z,15.57
2018-04-08T14:24:32.578Z,19.90
2018-04-08T14:27:00.200Z,20.30
2018-04-08T14:29:28.279Z,15.93
2018-04-08T14:31:56.025Z,17.97
2018-04-08T14:34:23.692Z,14.23
2018-04-08T14:36:51.398Z,17.20
2018-04-08T14:39:19.859Z,14.37
2018-04-08T14:41:47.501Z,18.33
2018-04-08T14:44:15.154Z,16.77
2018-04-08T14:46:43.559Z,14.73
2018-04-08T14:49:11.657Z,15.33
2018-04-08T14:51:40.060Z,20.57
2018-04-08T14:54:07.708Z,13.70
2018-04-08T14:56:35.377Z,13.67
2018-04-08T14:59:03.932Z,18.20
2018-04-08T15:01:31.598Z,16.10
2018-04-08T15:03:59.258Z,15.93
2018-04-08T15:06:27.364Z,14.03
2018-04-08T15:08:55.446Z,15.30
2018-04-08T15:11:23.172Z,14.40
2018-04-08T15:13:52.353Z,15.97
2018-04-08T15:16:20.115Z,17.33
2018-04-08T15:18:47.783Z,19.53
2018-04-08T15:21:15.463Z,17.70
2018-04-08T15:23:43.925Z,19.63
2018-04-08T15:26:11.600Z,14.70
2018-04-08T15:28:40.780Z,17.07
2018-04-08T15:31:08.424Z,17.47
2018-04-08T15:33:36.125Z,19.17
2018-04-08T15:36:04.632Z,20.83
2018-04-08T15:38:32.311Z,17.40
2018-04-08T15:40:59.999Z,17.43
2018-04-08T15:43:28.058Z,19.47
2018-04-08T15:45:55.739Z,18.27
2018-04-08T15:48:23.534Z,15.83
2018-04-08T15:50:51.915Z,17.33
2018-04-08T15:53:20.334Z,16.97
2018-04-08T15:55:48.050Z,16.70
2018-04-08T15:58:16.855Z,19.37
2018-04-08T16:00:44.524Z,18.37
2018-04-08T16:03:12.170Z,17.70
2018-04-08T16:05:40.600Z,21.87
2018-04-08T16:08:08.274Z,18.40
2018-04-08T16:10:36.019Z,20.13
2018-04-08T16:13:03.731Z,18.80
2018-04-08T16:15:31.738Z,20.60
2018-04-08T16:17:59.736Z,19.97
2018-04-08T16:20:27.465Z,18.20
2018-04-08T16:22:55.087Z,18.80
2018-04-08T16:25:23.532Z,16.97
2018-04-08T16:27:51.197Z,22.80
2018-04-08T16:30:19.639Z,17.57
2018-04-08T16:32:47.242Z,19.87
2018-04-08T16:35:15.787Z,18.20
2018-04-08T16:37:43.796Z,19.60
2018-04-08T16:40:12.954Z,18.37
2018-04-08T16:42:40.582Z,20.27
2018-04-08T16:45:09.045Z,19.73
2018-04-08T16:47:36.713Z,20.93
2018-04-08T16:50:04.438Z,21.50
2018-04-08T16:52:32.100Z,19.57
2018-04-08T16:54:59.726Z,21.77
2018-04-08T16:57:27.339Z,25.77
2018-04-08T16:59:55.823Z,24.80
2018-04-08T17:02:23.522Z,26.93
2018-04-08T17:04:52.545Z,21.10
2018-04-08T17:07:20.301Z,24.57
2018-04-08T17:09:48.048Z,26.50
2018-04-08T17:12:16.054Z,23.90
2018-04-08T17:14:43.669Z,24.57
2018-04-08T17:17:12.122Z,26.33
2018-04-08T17:19:40.559Z,29.30
2018-04-08T17:22:08.566Z,24.13
2018-04-08T17:24:36.333Z,23.63
2018-04-08T17:27:05.076Z,31.20
2018-04-08T17:29:32.766Z,31.33
2018-04-08T17:32:00.442Z,29.30
2018-04-08T17:34:28.142Z,26.47
2018-04-08T17:36:56.588Z,29.63
2018-04-08T17:39:24.268Z,24.73
2018-04-08T17:41:51.948Z,27.80
2018-04-08T17:44:20.445Z,34.47
2018-04-08T17:46:48.859Z,28.00
2018-04-08T17:49:16.517Z,27.73
2018-04-08T17:51:44.952Z,32.77
2018-04-08T17:54:13.363Z,29.77
2018-04-08T17:56:40.992Z,30.33
2018-04-08T17:59:09.019Z,39.97
2018-04-08T18:01:36.666Z,33.13
2018-04-08T18:04:05.421Z,30.77
2018-04-08T18:06:33.483Z,30.73
2018-04-08T18:09:03.025Z,32.40
2018-04-08T18:11:32.399Z,32.73
2018-04-08T18:14:00.735Z,31.97
2018-04-08T18:16:31.291Z,34.27
2018-04-08T18:18:59.220Z,31.03
2018-04-08T18:21:26.926Z,27.73
2018-04-08T18:23:54.975Z,30.97
2018-04-08T18:26:22.639Z,31.37
2018-04-08T18:28:50.713Z,34.77
2018-04-08T18:31:18.720Z,33.33
2018-04-08T18:33:47.375Z,31.97
2018-04-08T18:36:15.898Z,34.43
2018-04-08T18:38:45.118Z,33.17
2018-04-08T18:41:13.218Z,35.70
2018-04-08T18:43:42.238Z,32.60
2018-04-08T18:46:11.297Z,33.57
2018-04-08T18:48:39.904Z,32.47
2018-04-08T18:51:07.580Z,35.43
2018-04-08T18:53:35.996Z,33.53
2018-04-08T18:56:03.647Z,31.73
2018-04-08T18:58:31.292Z,32.80
2018-04-08T19:00:59.743Z,33.30
2018-04-08T19:03:27.407Z,36.17
2018-04-08T19:05:55.916Z,31.70
2018-04-08T19:08:24.402Z,32.07
2018-04-08T19:10:52.438Z,33.53
2018-04-08T19:13:20.096Z,32.13
2018-04-08T19:15:49.147Z,32.57
2018-04-08T19:18:16.779Z,33.20
2018-04-08T19:20:45.158Z,30.67
2018-04-08T19:23:14.198Z,33.77
2018-04-08T19:25:41.831Z,33.33
2018-04-08T19:28:09.575Z,32.97
2018-04-08T19:30:37.964Z,33.30
2018-04-08T19:33:05.985Z,37.13
2018-04-08T19:35:33.619Z,34.67
2018-04-08T19:38:01.246Z,37.07
2018-04-08T19:40:29.691Z,29.50
2018-04-08T19:42:57.728Z,32.10
2018-04-08T19:45:25.436Z,36.93
2018-04-08T19:47:53.559Z,33.93
2018-04-08T19:50:21.596Z,31.60
2018-04-08T19:52:49.251Z,32.57
2018-04-08T19:55:16.946Z,32.27
2018-04-08T19:57:46.535Z,31.73
2018-04-08T20:00:14.208Z,31.33
2018-04-08T20:02:42.294Z,33.83
2018-04-08T20:05:09.946Z,35.77
2018-04-08T20:07:38.323Z,28.90
2018-04-08T20:10:06.775Z,31.83
2018-04-08T20:12:35.170Z,32.70
2018-04-08T20:15:03.234Z,30.90
2018-04-08T20:17:30.897Z,27.93
2018-04-08T20:19:59.333Z,27.73
2018-04-08T20:22:28.510Z,30.43
2018-04-08T20:24:56.542Z,30.53
2018-04-08T20:27:25.006Z,28.37
2018-04-08T20:29:52.645Z,31.17
2018-04-08T20:32:21.013Z,28.73
2018-04-08T20:34:50.197Z,31.03
2018-04-08T20:37:23.599Z,33.63
2018-04-08T20:39:51.290Z,30.83
2018-04-08T20:42:20.468Z,29.90
2018-04-08T20:44:48.844Z,30.90
2018-04-08T20:47:17.744Z,29.87
2018-04-08T20:49:46.515Z,30.07
2018-04-08T20:52:14.179Z,33.37
2018-04-08T20:54:42.270Z,32.33
2018-04-08T20:57:09.934Z,28.67
2018-04-08T20:59:37.623Z,33.10
2018-04-08T21:02:06.650Z,30.13
2018-04-08T21:04:34.291Z,30.43
2018-04-08T21:07:01.942Z,30.13
2018-04-08T21:09:30.342Z,31.37
2018-04-08T21:11:58.375Z,33.17
2018-04-08T21:14:27.163Z,34.13
2018-04-08T21:16:54.863Z,29.43
2018-04-08T21:19:23.302Z,31.03
2018-04-08T21:21:51.217Z,30.57
2018-04-08T21:24:19.655Z,32.03
2018-04-08T21:26:47.375Z,35.77
2018-04-08T21:29:15.079Z,30.57
2018-04-08T21:31:43.538Z,27.93
2018-04-08T21:34:11.624Z,37.00
2018-04-08T21:36:41.099Z,32.43
2018-04-08T21:39:08.773Z,33.60
2018-04-08T21:41:36.447Z,30.87
2018-04-08T21:44:04.219Z,29.50
2018-04-08T21:46:32.613Z,40.13
2018-04-08T21:49:00.258Z,32.17
2018-04-08T21:51:28.395Z,35.63
2018-04-08T21:53:56.087Z,30.97
2018-04-08T21:56:23.801Z,32.53
2018-04-08T21:58:52.935Z,27.27
2018-04-08T22:01:21.078Z,33.83
2018-04-08T22:03:50.151Z,36.53
2018-04-08T22:06:17.819Z,35.30
2018-04-08T22:08:45.521Z,32.23
2018-04-08T22:11:13.580Z,35.47
2018-04-08T22:13:41.308Z,35.03
2018-04-08T22:16:09.705Z,29.40
2018-04-08T22:18:38.096Z,35.13
2018-04-08T22:21:06.876Z,30.00
2018-04-08T22:23:35.296Z,31.37
2018-04-08T22:26:03.722Z,34.50
2018-04-08T22:28:31.336Z,35.13
2018-04-08T22:30:59.028Z,32.57
2018-04-08T22:33:26.699Z,35.00
2018-04-08T22:35:55.851Z,37.83
2018-04-08T22:38:23.905Z,35.40
2018-04-08T22:40:52.000Z,35.63
2018-04-08T22:43:20.416Z,32.53
2018-04-08T22:45:48.803Z,36.00
2018-04-08T22:48:16.514Z,34.00
2018-04-08T22:50:44.194Z,38.83
2018-04-08T22:53:11.895Z,35.80
2018-04-08T22:55:41.014Z,35.43
2018-04-08T22:58:10.188Z,36.90
2018-04-08T23:00:38.578Z,34.43
2018-04-08T23:03:07.598Z,34.10
2018-04-08T23:05:36.006Z,35.40
2018-04-08T23:08:04.798Z,30.93
2018-04-08T23:10:32.561Z,33.17
2018-04-08T23:13:01.597Z,35.10
2018-04-08T23:15:30.380Z,34.07
2018-04-08T23:17:58.763Z,35.93
2018-04-08T23:20:27.192Z,41.13
2018-04-08T23:22:54.867Z,34.83
2018-04-08T23:25:22.515Z,34.27
2018-04-08T23:27:50.558Z,30.50
2018-04-08T23:30:18.240Z,35.07
2018-04-08T23:32:46.275Z,40.23
2018-04-08T23:35:14.671Z,40.67
2018-04-08T23:37:43.028Z,38.67
2018-04-08T23:40:11.445Z,36.73
2018-04-08T23:42:39.475Z,35.17
2018-04-08T23:45:07.893Z,37.90
2018-04-08T23:47:35.560Z,38.13
2018-04-08T23:50:03.340Z,37.27
2018-04-08T23:52:32.118Z,40.70
2018-04-08T23:54:59.783Z,39.33
2018-04-08T23:57:27.394Z,30.50
2018-04-08T23:59:56.231Z,39.57
